createdAt,value
2023-04-18T05:30:53.340Z,25.80
2023-04-18T05:33:21.637Z,25.50
2023-04-18T05:35:48.689Z,30.10
2023-04-18T05:38:16.230Z,23.55
2023-04-18T05:40:43.937Z,24.52
2023-04-18T05:43:11.715Z,31.40
2023-04-18T05:45:39.468Z,26.33
2023-04-18T05:48:07.292Z,24.77
2023-04-18T05:50:34.885Z,28.63
2023-04-18T05:53:02.543Z,22.80
2023-04-18T05:55:31.983Z,26.75
2023-04-18T05:58:01.392Z,29.23
2023-04-18T06:00:28.689Z,25.88
2023-04-18T06:02:56.867Z,24.75
2023-04-18T06:05:24.946Z,22.55
2023-04-18T06:07:53.247Z,26.00
2023-04-18T06:10:22.099Z,25.45
2023-04-18T06:12:51.780Z,22.13
2023-04-18T06:15:20.791Z,24.77
2023-04-18T06:17:51.390Z,31.33
2023-04-18T06:20:28.767Z,23.65
2023-04-18T06:22:57.063Z,23.38
2023-04-18T06:25:26.046Z,24.65
2023-04-18T06:27:55.804Z,28.17
2023-04-18T06:30:25.790Z,22.88
2023-04-18T06:32:53.930Z,26.35
2023-04-18T06:35:24.597Z,23.05
2023-04-18T06:37:55.066Z,21.75
2023-04-18T06:40:25.606Z,26.40
2023-04-18T06:42:54.020Z,20.15
2023-04-18T06:45:22.243Z,21.83
2023-04-18T06:47:52.615Z,22.10
2023-04-18T06:50:20.902Z,25.48
2023-04-18T06:52:49.264Z,23.67
2023-04-18T06:55:23.920Z,19.05
2023-04-18T06:57:52.536Z,25.90
2023-04-18T07:00:21.002Z,29.42
2023-04-18T07:02:49.466Z,25.20
2023-04-18T07:05:19.384Z,22.95
2023-04-18T07:07:47.544Z,19.48
2023-04-18T07:10:16.079Z,25.40
2023-04-18T07:12:44.787Z,26.95
2023-04-18T07:15:13.550Z,24.05
2023-04-18T07:17:42.117Z,26.15
2023-04-18T07:20:13.000Z,23.58
2023-04-18T07:22:49.174Z,27.30
2023-04-18T07:25:24.572Z,25.70
2023-04-18T07:27:53.444Z,24.35
2023-04-18T07:30:25.213Z,24.95
2023-04-18T07:32:53.470Z,28.33
2023-04-18T07:35:21.804Z,27.75
2023-04-18T07:37:49.653Z,21.73
2023-04-18T07:40:21.952Z,26.35
2023-04-18T07:42:50.417Z,22.98
2023-04-18T07:45:18.220Z,23.30
2023-04-18T07:47:47.221Z,23.35
2023-04-18T07:50:15.303Z,23.45
2023-04-18T07:52:42.969Z,19.00
2023-04-18T07:55:11.465Z,24.85
2023-04-18T07:57:53.808Z,23.83
2023-04-18T08:00:24.590Z,21.60
2023-04-18T08:02:56.106Z,21.90
2023-04-18T08:05:24.531Z,25.90
2023-04-18T08:07:53.016Z,24.45
2023-04-18T08:10:23.261Z,25.48
2023-04-18T08:12:51.571Z,27.70
2023-04-18T08:15:19.635Z,21.45
2023-04-18T08:17:49.173Z,27.77
2023-04-18T08:20:16.800Z,23.67
2023-04-18T08:22:57.469Z,25.17
2023-04-18T08:25:32.321Z,23.48
2023-04-18T08:28:00.027Z,34.85
2023-04-18T08:30:27.860Z,22.75
2023-04-18T08:32:56.474Z,26.83
2023-04-18T08:35:24.781Z,23.50
2023-04-18T08:37:52.778Z,19.77
2023-04-18T08:40:21.166Z,22.05
2023-04-18T08:42:49.199Z,21.75
2023-04-18T08:45:21.897Z,21.40
2023-04-18T08:47:49.837Z,26.92
2023-04-18T08:50:18.741Z,22.50
2023-04-18T08:52:50.212Z,26.67
2023-04-18T08:55:19.244Z,20.80
2023-04-18T08:57:47.705Z,27.75
2023-04-18T09:00:17.682Z,22.65
2023-04-18T09:02:46.940Z,21.88
2023-04-18T09:05:18.911Z,24.38
2023-04-18T09:07:53.314Z,22.58
2023-04-18T09:10:33.599Z,25.30
2023-04-18T09:13:06.539Z,22.55
2023-04-18T09:18:04.658Z,24.35
2023-04-18T09:20:35.988Z,21.17
2023-04-18T09:23:11.643Z,21.75
2023-04-18T09:25:44.547Z,21.63
2023-04-18T09:28:42.888Z,29.35
2023-04-18T09:31:13.166Z,21.15
2023-04-18T09:33:44.881Z,22.85
2023-04-18T09:36:22.481Z,23.42
2023-04-18T09:38:56.561Z,29.58
2023-04-18T09:41:49.478Z,27.92
2023-04-18T09:44:23.070Z,25.02
2023-04-18T09:46:55.355Z,29.10
2023-04-18T09:49:24.373Z,24.35
2023-04-18T09:51:53.679Z,23.02
2023-04-18T09:54:26.058Z,24.58
2023-04-18T09:56:55.360Z,22.88
2023-04-18T09:59:42.913Z,22.33
2023-04-18T10:02:21.140Z,21.27
2023-04-18T10:04:52.235Z,25.38
2023-04-18T10:07:22.133Z,26.85
2023-04-18T10:09:50.165Z,28.55
2023-04-18T10:12:19.030Z,23.52
2023-04-18T10:14:50.157Z,21.45
2023-04-18T10:17:19.802Z,26.20
2023-04-18T10:19:50.225Z,24.77
2023-04-18T10:22:27.472Z,20.48
2023-04-18T10:24:56.340Z,20.83
2023-04-18T10:27:49.035Z,21.80
2023-04-18T10:30:19.698Z,19.55
2023-04-18T10:33:05.816Z,19.27
2023-04-18T10:35:36.652Z,25.10
2023-04-18T10:38:04.442Z,19.40
2023-04-18T10:40:35.245Z,22.27
2023-04-18T10:43:03.125Z,20.85
2023-04-18T10:45:36.391Z,17.90
2023-04-18T10:48:29.587Z,22.10
2023-04-18T10:51:18.734Z,25.35
2023-04-18T10:53:55.146Z,24.70
2023-04-18T10:56:22.675Z,21.90
2023-04-18T10:58:51.531Z,19.83
2023-04-18T11:01:32.741Z,22.13
2023-04-18T11:04:01.324Z,20.25
2023-04-18T11:06:31.644Z,20.45
2023-04-18T11:09:12.531Z,17.33
2023-04-18T11:11:41.657Z,22.65
2023-04-18T11:14:09.582Z,22.45
2023-04-18T11:16:38.380Z,18.15
2023-04-18T11:19:23.284Z,20.15
2023-04-18T11:21:52.578Z,18.10
2023-04-18T11:24:24.278Z,19.73
2023-04-18T11:26:55.793Z,19.48
2023-04-18T11:29:24.066Z,18.60
2023-04-18T11:31:55.836Z,16.40
2023-04-18T11:34:30.485Z,16.35
2023-04-18T11:36:58.441Z,14.60
2023-04-18T11:39:25.951Z,16.17
2023-04-18T11:41:56.088Z,17.17
2023-04-18T11:44:25.186Z,17.90
2023-04-18T11:46:53.603Z,19.25
2023-04-18T11:49:32.468Z,17.15
2023-04-18T11:52:01.679Z,18.13
2023-04-18T11:54:45.486Z,16.70
2023-04-18T11:57:21.848Z,19.02
2023-04-18T11:59:59.803Z,17.55
2023-04-18T12:02:46.075Z,18.38
2023-04-18T12:05:35.259Z,15.35
2023-04-18T12:08:21.742Z,14.57
2023-04-18T12:10:51.758Z,21.30
2023-04-18T12:13:24.845Z,21.95
2023-04-18T12:15:52.311Z,13.00
2023-04-18T12:18:19.893Z,22.42
2023-04-18T12:20:52.487Z,18.77
2023-04-18T12:23:37.700Z,18.35
2023-04-18T12:26:07.220Z,18.60
2023-04-18T12:28:35.430Z,16.35
2023-04-18T12:31:05.461Z,21.05
2023-04-18T12:33:33.601Z,20.05
2023-04-18T12:36:00.933Z,23.77
2023-04-18T12:38:28.459Z,21.63
2023-04-18T12:40:56.086Z,15.15
2023-04-18T12:43:23.289Z,15.60
2023-04-18T12:45:50.792Z,19.98
2023-04-18T12:48:18.128Z,25.35
2023-04-18T12:50:45.295Z,16.45
2023-04-18T12:53:12.470Z,18.95
2023-04-18T12:55:40.015Z,16.90
2023-04-18T12:58:07.421Z,14.48
2023-04-18T13:00:35.101Z,15.82
2023-04-18T13:03:02.449Z,15.35
2023-04-18T13:05:33.550Z,13.68
2023-04-18T13:10:31.933Z,18.92
2023-04-18T13:12:59.552Z,13.02
2023-04-18T13:15:27.645Z,14.63
2023-04-18T13:18:04.453Z,15.88
2023-04-18T13:20:33.205Z,11.65
2023-04-18T13:23:01.050Z,13.25
2023-04-18T13:25:28.605Z,16.77
2023-04-18T13:27:57.501Z,13.95
2023-04-18T13:30:24.970Z,10.38
2023-04-18T13:32:52.051Z,14.73
2023-04-18T13:35:19.714Z,11.57
2023-04-18T13:37:47.412Z,12.27
2023-04-18T13:40:15.620Z,11.95
2023-04-18T13:42:43.838Z,11.40
2023-04-18T13:45:11.331Z,11.75
2023-04-18T13:47:39.439Z,12.93
2023-04-18T13:50:07.436Z,10.05
2023-04-18T13:52:35.293Z,10.32
2023-04-18T13:55:03.766Z,14.52
2023-04-18T13:57:32.308Z,10.90
2023-04-18T13:59:59.889Z,9.95
2023-04-18T14:02:27.636Z,9.90
2023-04-18T14:04:55.489Z,5.68
2023-04-18T14:07:26.404Z,7.88
2023-04-18T14:09:54.080Z,6.78
2023-04-18T14:12:21.728Z,7.38
2023-04-18T14:14:49.914Z,6.45
2023-04-18T14:17:17.693Z,10.02
2023-04-18T14:19:45.046Z,8.60
2023-04-18T14:22:12.327Z,11.32
2023-04-18T14:24:39.901Z,7.78
2023-04-18T14:27:08.055Z,8.43
2023-04-18T14:29:35.507Z,8.52
2023-04-18T14:32:02.917Z,10.55
2023-04-18T14:34:32.728Z,7.80
2023-04-18T14:37:01.150Z,10.10
2023-04-18T14:39:28.474Z,9.60
2023-04-18T14:41:55.888Z,9.68
2023-04-18T14:44:23.182Z,8.95
2023-04-18T14:46:50.780Z,10.95
2023-04-18T14:49:18.344Z,8.25
2023-04-18T14:51:45.484Z,11.70
2023-04-18T14:54:13.360Z,9.82
2023-04-18T14:56:40.616Z,9.85
2023-04-18T14:59:07.979Z,9.35
2023-04-18T15:01:35.726Z,11.25
2023-04-18T15:04:04.377Z,9.02
2023-04-18T15:06:32.611Z,6.00
2023-04-18T15:09:00.627Z,7.60
2023-04-18T15:11:27.737Z,7.82
2023-04-18T15:13:55.472Z,7.15
2023-04-18T15:16:22.959Z,10.40
2023-04-18T15:18:50.019Z,8.77
2023-04-18T15:21:17.280Z,7.35
2023-04-18T15:23:44.922Z,11.55
2023-04-18T15:26:12.378Z,11.95
2023-04-18T15:28:40.017Z,9.20
2023-04-18T15:31:07.593Z,10.70
2023-04-18T15:33:34.800Z,9.60
2023-04-18T15:36:02.043Z,9.48
2023-04-18T15:38:30.515Z,8.35
2023-04-18T15:40:59.466Z,11.18
2023-04-18T15:43:26.611Z,9.85
2023-04-18T15:45:54.240Z,7.47
2023-04-18T15:48:21.788Z,9.18
2023-04-18T15:50:52.375Z,6.78
2023-04-18T15:53:19.567Z,9.38
2023-04-18T15:55:46.907Z,8.30
2023-04-18T15:58:14.620Z,10.98
